Time;durP1;ratioP1;P1;durP2;ratioP2;P2;SDS_P1;SDS_P2;PMS_P1;PMS_P2;Temp;Humidity;BMP_temperature;BMP_pressure;BME280_temperature;BME280_humidity;BME280_pressure;Samples;Min_cycle;Max_cycle;Signal;HPM_P1;HPM_P2
2021/05/30 00:00:08;;;;;;;0.10;0.10;;;;;;;;;;5083185;28;20251;-68
2021/05/30 00:02:34;;;;;;;0.10;0.10;;;;;;;;;;5083650;28;20218;-67
2021/05/30 00:05:00;;;;;;;0.10;0.10;;;;;;;;;;5083257;28;20270;-68
2021/05/30 00:07:25;;;;;;;0.10;0.10;;;;;;;;;;5083509;28;20391;-67
2021/05/30 00:09:51;;;;;;;0.10;0.10;;;;;;;;;;5082890;28;20234;-67
2021/05/30 00:12:18;;;;;;;0.10;0.10;;;;;;;;;;5082753;28;20206;-67
2021/05/30 00:14:44;;;;;;;0.10;0.10;;;;;;;;;;5087501;28;20249;-68
2021/05/30 00:17:10;;;;;;;0.10;0.10;;;;;;;;;;5087153;28;20211;-67
2021/05/30 00:19:36;;;;;;;0.10;0.10;;;;;;;;;;5087374;28;20215;-68
2021/05/30 00:22:01;;;;;;;0.10;0.10;;;;;;;;;;5087317;28;20239;-67
2021/05/30 00:24:27;;;;;;;0.10;0.10;;;;;;;;;;5087424;28;20365;-67
2021/05/30 00:26:53;;;;;;;0.10;0.10;;;;;;;;;;5087133;28;20207;-67
2021/05/30 00:29:20;;;;;;;0.10;0.10;;;;;;;;;;5087217;28;20219;-68
2021/05/30 00:31:46;;;;;;;0.10;0.10;;;;;;;;;;5087131;28;20257;-67
2021/05/30 00:34:12;;;;;;;0.10;0.10;;;;;;;;;;5087149;28;20211;-68
2021/05/30 00:36:38;;;;;;;0.10;0.10;;;;;;;;;;5086979;28;20515;-68
2021/05/30 00:39:04;;;;;;;0.10;0.10;;;;;;;;;;5087100;28;20500;-68
2021/05/30 00:41:29;;;;;;;0.10;0.10;;;;;;;;;;5085951;28;20547;-67
2021/05/30 00:43:55;;;;;;;0.10;0.10;;;;;;;;;;5086793;28;20279;-67
2021/05/30 00:46:23;;;;;;;0.10;0.10;;;;;;;;;;5086791;28;20464;-68
2021/05/30 00:48:50;;;;;;;0.10;0.10;;;;;;;;;;5086242;28;20391;-68
2021/05/30 00:51:16;;;;;;;0.10;0.10;;;;;;;;;;5086778;28;20337;-68
2021/05/30 00:53:42;;;;;;;0.10;0.10;;;;;;;;;;5086364;28;20211;-68
2021/05/30 00:56:10;;;;;;;0.10;0.10;;;;;;;;;;5086601;28;20203;-68
2021/05/30 00:58:37;;;;;;;0.10;0.10;;;;;;;;;;5086261;28;20211;-68
2021/05/30 01:01:03;;;;;;;0.10;0.10;;;;;;;;;;5086163;28;20559;-67
2021/05/30 01:03:29;;;;;;;0.10;0.10;;;;;;;;;;5083729;28;20213;-68
2021/05/30 01:05:55;;;;;;;0.10;0.10;;;;;;;;;;5085503;28;20490;-68
2021/05/30 01:08:27;;;;;;;0.10;0.10;;;;;;;;;;5085111;28;20223;-68
2021/05/30 01:10:53;;;;;;;0.10;0.10;;;;;;;;;;5086265;28;20382;-68
2021/05/30 01:13:19;;;;;;;0.10;0.10;;;;;;;;;;5072289;28;20199;-67
2021/05/30 01:15:47;;;;;;;0.10;0.10;;;;;;;;;;5086028;28;20210;-68
2021/05/30 01:18:15;;;;;;;0.10;0.10;;;;;;;;;;5085894;28;20419;-67
2021/05/30 01:20:42;;;;;;;0.10;0.10;;;;;;;;;;5071959;28;20207;-68
2021/05/30 01:23:11;;;;;;;0.10;0.10;;;;;;;;;;5081532;28;20232;-67
2021/05/30 01:25:36;;;;;;;0.10;0.10;;;;;;;;;;5085526;28;20257;-68
2021/05/30 01:28:04;;;;;;;0.10;0.10;;;;;;;;;;5078722;28;20230;-69
2021/05/30 01:30:30;;;;;;;0.10;0.10;;;;;;;;;;5085841;28;20209;-69
2021/05/30 01:32:56;;;;;;;0.10;0.10;;;;;;;;;;5086223;28;20269;-69
2021/05/30 01:35:22;;;;;;;0.10;0.10;;;;;;;;;;5086111;28;20217;-67
2021/05/30 01:37:49;;;;;;;0.10;0.10;;;;;;;;;;5078232;28;20258;-68
2021/05/30 01:40:16;;;;;;;0.10;0.10;;;;;;;;;;5085545;28;20226;-68
2021/05/30 01:42:41;;;;;;;0.10;0.10;;;;;;;;;;5084817;28;20300;-67
2021/05/30 01:45:07;;;;;;;0.10;0.10;;;;;;;;;;5085673;28;20221;-68
2021/05/30 01:47:35;;;;;;;0.10;0.10;;;;;;;;;;5085282;28;20206;-68
2021/05/30 01:50:01;;;;;;;0.10;0.10;;;;;;;;;;5085373;28;20229;-68
2021/05/30 01:52:27;;;;;;;0.10;0.10;;;;;;;;;;5085519;28;20209;-68
2021/05/30 01:54:53;;;;;;;0.10;0.10;;;;;;;;;;5085627;28;20212;-69
2021/05/30 01:57:20;;;;;;;0.10;0.10;;;;;;;;;;5085260;28;20210;-67
2021/05/30 01:59:46;;;;;;;0.10;0.10;;;;;;;;;;5085355;28;20204;-69
2021/05/30 02:02:12;;;;;;;0.10;0.10;;;;;;;;;;5085445;28;20231;-68
2021/05/30 02:04:39;;;;;;;0.10;0.10;;;;;;;;;;5085436;28;20228;-67
2021/05/30 02:07:04;;;;;;;0.10;0.10;;;;;;;;;;5085427;28;20210;-67
2021/05/30 02:09:31;;;;;;;0.10;0.10;;;;;;;;;;5085281;28;20287;-68
2021/05/30 02:11:57;;;;;;;0.10;0.10;;;;;;;;;;5074372;28;20201;-68
2021/05/30 02:14:24;;;;;;;0.10;0.10;;;;;;;;;;5085131;28;20205;-68
2021/05/30 02:16:50;;;;;;;0.10;0.10;;;;;;;;;;5084807;28;20216;-67
2021/05/30 02:19:15;;;;;;;0.10;0.10;;;;;;;;;;5085198;28;20214;-70
2021/05/30 02:21:42;;;;;;;0.10;0.10;;;;;;;;;;5084643;28;20256;-69
2021/05/30 02:24:08;;;;;;;0.10;0.10;;;;;;;;;;5085094;28;20216;-67
2021/05/30 02:26:34;;;;;;;0.10;0.10;;;;;;;;;;5084952;28;20210;-68
2021/05/30 02:29:00;;;;;;;0.10;0.10;;;;;;;;;;5084742;28;20605;-67
2021/05/30 02:31:26;;;;;;;0.10;0.10;;;;;;;;;;5084819;28;20230;-68
2021/05/30 02:33:52;;;;;;;0.10;0.10;;;;;;;;;;5084647;28;20236;-68
2021/05/30 02:36:18;;;;;;;0.10;0.10;;;;;;;;;;5084213;28;20232;-69
2021/05/30 02:38:44;;;;;;;0.10;0.10;;;;;;;;;;5084225;28;20230;-68
2021/05/30 02:41:09;;;;;;;3.30;3.20;;;;;;;;;;5084623;28;20227;-69
2021/05/30 02:43:35;;;;;;;0.10;0.10;;;;;;;;;;5084213;28;20202;-68
2021/05/30 02:46:02;;;;;;;0.10;0.10;;;;;;;;;;5084095;28;20580;-67
2021/05/30 02:48:28;;;;;;;0.10;0.10;;;;;;;;;;5084222;28;20230;-66
2021/05/30 02:50:59;;;;;;;0.10;0.10;;;;;;;;;;5084550;28;20503;-68
2021/05/30 02:53:25;;;;;;;0.10;0.10;;;;;;;;;;5084540;28;20199;-68
2021/05/30 02:55:50;;;;;;;0.10;0.10;;;;;;;;;;5071237;28;20529;-68
2021/05/30 02:58:16;;;;;;;0.10;0.10;;;;;;;;;;5084161;28;20200;-67
2021/05/30 03:00:42;;;;;;;0.10;0.10;;;;;;;;;;5084469;28;20204;-68
2021/05/30 03:03:08;;;;;;;0.10;0.10;;;;;;;;;;5084552;28;20216;-68
2021/05/30 03:05:34;;;;;;;0.10;0.10;;;;;;;;;;5084251;28;20211;-68
2021/05/30 03:08:00;;;;;;;0.10;0.10;;;;;;;;;;5084159;28;20251;-68
2021/05/30 03:10:26;;;;;;;0.10;0.10;;;;;;;;;;5077381;28;20437;-68
2021/05/30 03:12:51;;;;;;;0.10;0.10;;;;;;;;;;5083602;28;20479;-67
2021/05/30 03:15:17;;;;;;;0.10;0.10;;;;;;;;;;5083611;28;20211;-68
2021/05/30 03:17:43;;;;;;;0.10;0.10;;;;;;;;;;5074747;28;20208;-68
2021/05/30 03:20:09;;;;;;;0.10;0.10;;;;;;;;;;5083515;28;20213;-67
2021/05/30 03:22:36;;;;;;;0.10;0.10;;;;;;;;;;5083530;28;20205;-68
2021/05/30 03:25:02;;;;;;;0.10;0.10;;;;;;;;;;5083449;28;20205;-68
2021/05/30 03:27:28;;;;;;;0.10;0.10;;;;;;;;;;5083651;28;20204;-70
2021/05/30 03:29:56;;;;;;;0.10;0.10;;;;;;;;;;5083491;28;20227;-68
2021/05/30 03:32:22;;;;;;;0.10;0.10;;;;;;;;;;5083749;28;20276;-67
2021/05/30 03:34:48;;;;;;;0.10;0.10;;;;;;;;;;5083736;28;20202;-67
2021/05/30 03:37:13;;;;;;;0.10;0.10;;;;;;;;;;5083652;28;20204;-68
2021/05/30 03:39:42;;;;;;;0.10;0.10;;;;;;;;;;5083247;28;20246;-67
2021/05/30 03:42:13;;;;;;;0.10;0.10;;;;;;;;;;5083307;28;20279;-66
2021/05/30 03:44:39;;;;;;;0.10;0.10;;;;;;;;;;5083271;28;20272;-68
2021/05/30 03:47:05;;;;;;;0.10;0.10;;;;;;;;;;5085422;28;20205;-67
2021/05/30 03:49:30;;;;;;;0.10;0.10;;;;;;;;;;5083478;28;20219;-67
2021/05/30 03:51:56;;;;;;;0.10;0.10;;;;;;;;;;5083407;28;20204;-67
2021/05/30 03:54:22;;;;;;;0.10;0.10;;;;;;;;;;5083119;28;20223;-67
2021/05/30 03:56:49;;;;;;;0.10;0.10;;;;;;;;;;5083200;28;20200;-67
2021/05/30 03:59:14;;;;;;;0.10;0.10;;;;;;;;;;5083218;28;20212;-67
2021/05/30 04:01:40;;;;;;;0.10;0.10;;;;;;;;;;5082941;28;20205;-67
2021/05/30 04:04:06;;;;;;;0.10;0.10;;;;;;;;;;5082327;28;20213;-67
2021/05/30 04:06:32;;;;;;;0.10;0.10;;;;;;;;;;5083285;28;20230;-67
2021/05/30 04:08:58;;;;;;;0.10;0.10;;;;;;;;;;5083265;28;20446;-70
2021/05/30 04:11:23;;;;;;;0.10;0.10;;;;;;;;;;5076920;28;20228;-68
2021/05/30 04:13:50;;;;;;;0.10;0.10;;;;;;;;;;5083270;28;20200;-66
2021/05/30 04:16:16;;;;;;;0.10;0.10;;;;;;;;;;5083125;28;20207;-67
2021/05/30 04:18:41;;;;;;;0.10;0.10;;;;;;;;;;5083089;28;20200;-67
2021/05/30 04:21:07;;;;;;;0.10;0.10;;;;;;;;;;5083249;28;20221;-66
2021/05/30 04:23:33;;;;;;;0.10;0.10;;;;;;;;;;5080359;28;20205;-67
2021/05/30 04:25:59;;;;;;;0.10;0.10;;;;;;;;;;5082901;28;20203;-67
2021/05/30 04:28:24;;;;;;;0.10;0.10;;;;;;;;;;5079733;28;20215;-67
2021/05/30 04:30:51;;;;;;;0.10;0.10;;;;;;;;;;5072958;28;20200;-67
2021/05/30 04:33:17;;;;;;;0.10;0.10;;;;;;;;;;5083020;28;20212;-66
2021/05/30 04:35:42;;;;;;;0.10;0.10;;;;;;;;;;5083081;28;20258;-68
2021/05/30 04:38:08;;;;;;;0.10;0.10;;;;;;;;;;5082654;28;20535;-68
2021/05/30 04:40:34;;;;;;;0.10;0.10;;;;;;;;;;5082658;28;20441;-68
2021/05/30 04:43:00;;;;;;;0.10;0.10;;;;;;;;;;5083012;28;20277;-68
2021/05/30 04:45:25;;;;;;;0.10;0.10;;;;;;;;;;5082238;28;20212;-67
2021/05/30 04:47:52;;;;;;;0.10;0.10;;;;;;;;;;5082773;28;20207;-67
2021/05/30 04:50:18;;;;;;;0.10;0.10;;;;;;;;;;5081042;28;20233;-68
2021/05/30 04:52:43;;;;;;;0.10;0.10;;;;;;;;;;5082376;28;20210;-66
2021/05/30 04:55:11;;;;;;;0.10;0.10;;;;;;;;;;5082869;28;20439;-67
2021/05/30 04:57:37;;;;;;;0.10;0.10;;;;;;;;;;5083001;28;20503;-67
2021/05/30 05:00:04;;;;;;;0.10;0.10;;;;;;;;;;5086132;28;20206;-67
2021/05/30 05:02:29;;;;;;;0.10;0.10;;;;;;;;;;5086080;28;20210;-67
2021/05/30 05:04:56;;;;;;;0.10;0.10;;;;;;;;;;5086467;28;20221;-68
2021/05/30 05:07:22;;;;;;;0.10;0.10;;;;;;;;;;5086028;28;20210;-67
2021/05/30 05:09:47;;;;;;;0.10;0.10;;;;;;;;;;5081770;28;20223;-68
2021/05/30 05:12:13;;;;;;;0.10;0.10;;;;;;;;;;5076507;28;20205;-68
2021/05/30 05:14:39;;;;;;;0.10;0.10;;;;;;;;;;5086266;28;20256;-68
2021/05/30 05:17:05;;;;;;;0.10;0.10;;;;;;;;;;5086594;28;20207;-68
2021/05/30 05:19:31;;;;;;;0.10;0.10;;;;;;;;;;5086107;28;20217;-68
2021/05/30 05:21:57;;;;;;;0.10;0.10;;;;;;;;;;5085801;28;20206;-68
2021/05/30 05:24:23;;;;;;;0.10;0.10;;;;;;;;;;5086092;28;20214;-68
2021/05/30 05:26:49;;;;;;;0.10;0.10;;;;;;;;;;5085621;28;20247;-67
2021/05/30 05:29:14;;;;;;;0.10;0.10;;;;;;;;;;5085651;28;20271;-67
2021/05/30 05:31:40;;;;;;;0.10;0.10;;;;;;;;;;5085957;28;20252;-68
2021/05/30 05:34:06;;;;;;;3.63;3.53;;;;;;;;;;5086015;28;20202;-68
2021/05/30 05:36:32;;;;;;;0.10;0.10;;;;;;;;;;5085919;28;20489;-68
2021/05/30 05:38:58;;;;;;;0.10;0.10;;;;;;;;;;5085685;28;20236;-68
2021/05/30 05:41:24;;;;;;;0.10;0.10;;;;;;;;;;5085831;28;20260;-68
2021/05/30 05:43:50;;;;;;;0.10;0.10;;;;;;;;;;5085353;28;20233;-68
2021/05/30 05:46:15;;;;;;;0.10;0.10;;;;;;;;;;5084993;28;20201;-68
2021/05/30 05:48:41;;;;;;;0.10;0.10;;;;;;;;;;5084244;28;20265;-68
2021/05/30 05:51:07;;;;;;;0.10;0.10;;;;;;;;;;5085521;28;20199;-68
2021/05/30 05:53:33;;;;;;;0.10;0.10;;;;;;;;;;5083399;28;20473;-68
2021/05/30 05:55:59;;;;;;;0.10;0.10;;;;;;;;;;5085588;28;20218;-67
2021/05/30 05:58:25;;;;;;;0.10;0.10;;;;;;;;;;5085482;28;20207;-68
2021/05/30 06:00:51;;;;;;;0.10;0.10;;;;;;;;;;5084928;28;20307;-68
2021/05/30 06:03:17;;;;;;;0.10;0.10;;;;;;;;;;5085348;28;20211;-67
2021/05/30 06:05:42;;;;;;;0.10;0.10;;;;;;;;;;5084873;28;20219;-68
2021/05/30 06:08:08;;;;;;;0.10;0.10;;;;;;;;;;5085203;28;20204;-68
2021/05/30 06:10:34;;;;;;;0.10;0.10;;;;;;;;;;5077820;28;20205;-68
2021/05/30 06:13:03;;;;;;;0.10;0.10;;;;;;;;;;5084968;28;20199;-68
2021/05/30 06:15:29;;;;;;;0.10;0.10;;;;;;;;;;5086737;28;20210;-68
2021/05/30 06:17:56;;;;;;;0.10;0.10;;;;;;;;;;5085021;28;20203;-68
2021/05/30 06:20:23;;;;;;;0.10;0.10;;;;;;;;;;5084999;28;20201;-71
2021/05/30 06:22:48;;;;;;;0.10;0.10;;;;;;;;;;5083771;28;20214;-68
2021/05/30 06:25:14;;;;;;;0.10;0.10;;;;;;;;;;5084228;28;20266;-67
2021/05/30 06:27:40;;;;;;;0.10;0.10;;;;;;;;;;5089507;28;20498;-68
2021/05/30 06:30:07;;;;;;;0.10;0.10;;;;;;;;;;5085024;28;20224;-68
2021/05/30 06:32:33;;;;;;;0.10;0.10;;;;;;;;;;5086855;28;20212;-67
2021/05/30 06:34:59;;;;;;;0.10;0.10;;;;;;;;;;5089298;28;20226;-68
2021/05/30 06:37:25;;;;;;;0.10;0.10;;;;;;;;;;5088255;28;20209;-68
2021/05/30 06:39:50;;;;;;;0.10;0.10;;;;;;;;;;5092032;28;20229;-68
2021/05/30 06:42:16;;;;;;;0.10;0.10;;;;;;;;;;5087618;28;20196;-68
2021/05/30 06:44:42;;;;;;;0.10;0.10;;;;;;;;;;5090442;28;20204;-67
2021/05/30 06:47:08;;;;;;;0.10;0.10;;;;;;;;;;5085458;28;20503;-67
2021/05/30 06:49:34;;;;;;;0.10;0.10;;;;;;;;;;5079559;28;20250;-67
2021/05/30 06:52:00;;;;;;;0.10;0.10;;;;;;;;;;5087110;28;20209;-67
2021/05/30 06:54:26;;;;;;;0.10;0.10;;;;;;;;;;5084518;28;20558;-66
2021/05/30 06:56:52;;;;;;;0.10;0.10;;;;;;;;;;5095129;28;20203;-66
2021/05/30 06:59:19;;;;;;;0.10;0.10;;;;;;;;;;5083905;28;20197;-70
2021/05/30 07:01:44;;;;;;;0.10;0.10;;;;;;;;;;5077995;28;20233;-70
2021/05/30 07:04:11;;;;;;;0.10;0.10;;;;;;;;;;5083297;28;20221;-70
2021/05/30 07:06:37;;;;;;;0.10;0.10;;;;;;;;;;5084667;28;20436;-70
2021/05/30 07:09:05;;;;;;;0.10;0.10;;;;;;;;;;5090251;28;20229;-72
2021/05/30 07:11:31;;;;;;;0.10;0.10;;;;;;;;;;5091530;28;20559;-71
2021/05/30 07:13:57;;;;;;;0.10;0.10;;;;;;;;;;5083789;28;20218;-70
2021/05/30 07:16:23;;;;;;;0.10;0.10;;;;;;;;;;5081498;28;20273;-70
2021/05/30 07:18:48;;;;;;;0.93;0.93;;;;;;;;;;5079917;28;20532;-70
2021/05/30 07:21:15;;;;;;;0.10;0.10;;;;;;;;;;5082818;28;20497;-70
2021/05/30 07:23:41;;;;;;;0.10;0.10;;;;;;;;;;5083452;28;20214;-71
2021/05/30 07:26:07;;;;;;;0.10;0.10;;;;;;;;;;5083812;28;20589;-70
2021/05/30 07:28:33;;;;;;;0.10;0.10;;;;;;;;;;5082419;28;20303;-70
2021/05/30 07:30:59;;;;;;;0.10;0.10;;;;;;;;;;5083524;28;20218;-67
2021/05/30 07:33:25;;;;;;;0.10;0.10;;;;;;;;;;5083787;28;20218;-68
2021/05/30 07:35:50;;;;;;;0.10;0.10;;;;;;;;;;5083917;28;20202;-67
2021/05/30 07:38:17;;;;;;;0.10;0.10;;;;;;;;;;5083601;28;20417;-67
2021/05/30 07:40:43;;;;;;;0.10;0.10;;;;;;;;;;5083411;28;21190;-68
2021/05/30 07:43:09;;;;;;;0.10;0.10;;;;;;;;;;5083656;28;20246;-68
2021/05/30 07:45:35;;;;;;;0.10;0.10;;;;;;;;;;5083568;28;20389;-68
2021/05/30 07:48:01;;;;;;;0.10;0.10;;;;;;;;;;5083282;28;20210;-68
2021/05/30 07:50:26;;;;;;;0.07;0.07;;;;;;;;;;5091065;28;20271;-66
2021/05/30 07:52:52;;;;;;;0.10;0.10;;;;;;;;;;5084117;28;20220;-66
2021/05/30 07:55:19;;;;;;;0.10;0.10;;;;;;;;;;5083214;28;20206;-68
2021/05/30 07:57:45;;;;;;;0.10;0.10;;;;;;;;;;5083414;28;20203;-68
2021/05/30 08:00:12;;;;;;;0.10;0.10;;;;;;;;;;5083094;28;20539;-67
2021/05/30 08:02:37;;;;;;;0.10;0.10;;;;;;;;;;5083199;28;20203;-67
2021/05/30 08:05:04;;;;;;;0.10;0.10;;;;;;;;;;5082980;28;20295;-67
2021/05/30 08:07:29;;;;;;;0.10;0.10;;;;;;;;;;5083327;28;20352;-66
2021/05/30 08:09:55;;;;;;;0.10;0.10;;;;;;;;;;5083090;28;20231;-67
2021/05/30 08:12:22;;;;;;;0.10;0.10;;;;;;;;;;5075744;28;20212;-67
2021/05/30 08:14:47;;;;;;;0.10;0.10;;;;;;;;;;5083344;28;20203;-67
2021/05/30 08:17:13;;;;;;;0.10;0.10;;;;;;;;;;5083255;28;20365;-68
2021/05/30 08:19:39;;;;;;;0.10;0.10;;;;;;;;;;5083146;28;20206;-67
2021/05/30 08:22:05;;;;;;;0.00;0.00;;;;;;;;;;5083195;28;20211;-68
2021/05/30 08:24:31;;;;;;;0.10;0.10;;;;;;;;;;5082812;28;20276;-68
2021/05/30 08:26:57;;;;;;;0.10;0.10;;;;;;;;;;5083497;28;20212;-67
2021/05/30 08:29:24;;;;;;;0.10;0.10;;;;;;;;;;5083145;28;20609;-67
2021/05/30 08:31:50;;;;;;;0.07;0.07;;;;;;;;;;5083039;28;20413;-67
2021/05/30 08:34:16;;;;;;;0.10;0.10;;;;;;;;;;5085814;28;20205;-67
2021/05/30 08:36:41;;;;;;;0.10;0.10;;;;;;;;;;5082575;28;20274;-67
2021/05/30 08:39:08;;;;;;;0.10;0.10;;;;;;;;;;5084708;28;20260;-68
2021/05/30 08:41:34;;;;;;;0.10;0.10;;;;;;;;;;5086846;28;20214;-68
2021/05/30 08:43:59;;;;;;;0.10;0.10;;;;;;;;;;5086887;28;20243;-68
2021/05/30 08:46:28;;;;;;;0.10;0.10;;;;;;;;;;5087044;28;20213;-67
2021/05/30 08:48:54;;;;;;;0.03;0.03;;;;;;;;;;5086784;28;20229;-67
2021/05/30 08:51:20;;;;;;;0.10;0.10;;;;;;;;;;5086805;28;20389;-68
2021/05/30 08:53:46;;;;;;;0.00;0.00;;;;;;;;;;5087284;28;20206;-68
2021/05/30 08:56:13;;;;;;;0.10;0.10;;;;;;;;;;5086572;28;20222;-67
2021/05/30 08:58:39;;;;;;;0.27;0.27;;;;;;;;;;5086889;28;20202;-66
2021/05/30 09:01:09;;;;;;;0.10;0.10;;;;;;;;;;5086515;28;20206;-66
2021/05/30 09:03:49;;;;;;;0.03;0.03;;;;;;;;;;5086738;28;20206;-67
2021/05/30 09:06:15;;;;;;;0.10;0.10;;;;;;;;;;5083499;28;20202;-66
2021/05/30 09:08:41;;;;;;;0.10;0.10;;;;;;;;;;5086916;28;20293;-67
2021/05/30 09:11:08;;;;;;;0.10;0.10;;;;;;;;;;5088319;28;20248;-69
2021/05/30 09:13:38;;;;;;;0.10;0.10;;;;;;;;;;5088331;28;20271;-66
2021/05/30 09:16:09;;;;;;;0.10;0.10;;;;;;;;;;5087679;28;20536;-67
2021/05/30 09:18:35;;;;;;;0.10;0.10;;;;;;;;;;5087018;28;20207;-66
2021/05/30 09:21:03;;;;;;;0.05;0.05;;;;;;;;;;5077376;28;20376;-68
2021/05/30 09:23:31;;;;;;;0.10;0.10;;;;;;;;;;5087404;28;20231;-67
2021/05/30 09:26:06;;;;;;;0.08;0.08;;;;;;;;;;5088730;28;20207;-68
2021/05/30 09:28:32;;;;;;;0.10;0.10;;;;;;;;;;5087722;28;20199;-66
2021/05/30 09:31:01;;;;;;;0.07;0.07;;;;;;;;;;5086993;28;20282;-66
2021/05/30 09:33:30;;;;;;;0.00;0.00;;;;;;;;;;5082227;28;20212;-66
2021/05/30 09:35:57;;;;;;;0.05;0.05;;;;;;;;;;5086948;28;20203;-66
2021/05/30 09:38:27;;;;;;;0.10;0.10;;;;;;;;;;5086339;28;20273;-65
2021/05/30 09:40:53;;;;;;;0.10;0.10;;;;;;;;;;5088086;28;20486;-66
2021/05/30 09:43:20;;;;;;;0.10;0.10;;;;;;;;;;5088402;28;20215;-66
2021/05/30 09:46:01;;;;;;;0.00;0.00;;;;;;;;;;5086703;28;20207;-67
2021/05/30 09:48:27;;;;;;;0.00;0.00;;;;;;;;;;5087150;28;20212;-66
2021/05/30 09:51:05;;;;;;;0.10;0.10;;;;;;;;;;5085831;28;20212;-67
2021/05/30 09:53:33;;;;;;;0.10;0.10;;;;;;;;;;5092041;28;20263;-67
2021/05/30 09:55:59;;;;;;;0.10;0.10;;;;;;;;;;5086469;28;20212;-67
2021/05/30 09:58:25;;;;;;;0.10;0.10;;;;;;;;;;5087394;28;20409;-66
2021/05/30 10:00:58;;;;;;;0.00;0.00;;;;;;;;;;5087688;28;20200;-66
2021/05/30 10:03:24;;;;;;;0.00;0.00;;;;;;;;;;5087979;28;20385;-67
2021/05/30 10:05:50;;;;;;;0.00;0.00;;;;;;;;;;5088124;28;20207;-66
2021/05/30 10:08:16;;;;;;;0.00;0.00;;;;;;;;;;5086829;28;20206;-66
2021/05/30 10:10:43;;;;;;;0.10;0.10;;;;;;;;;;5087823;28;20258;-65
2021/05/30 10:13:10;;;;;;;0.10;0.10;;;;;;;;;;5087527;28;20204;-65
2021/05/30 10:15:36;;;;;;;0.00;0.00;;;;;;;;;;5087660;28;20250;-66
2021/05/30 10:18:03;;;;;;;0.00;0.00;;;;;;;;;;5079404;28;20408;-66
2021/05/30 10:20:30;;;;;;;0.10;0.10;;;;;;;;;;5087184;28;20201;-65
2021/05/30 10:22:58;;;;;;;0.10;0.10;;;;;;;;;;5086477;28;20508;-65
2021/05/30 10:25:25;;;;;;;0.05;0.05;;;;;;;;;;5086727;28;20213;-66
2021/05/30 10:28:06;;;;;;;0.00;0.00;;;;;;;;;;5086702;28;20204;-66
2021/05/30 10:30:33;;;;;;;0.00;0.00;;;;;;;;;;5086853;28;20253;-65
2021/05/30 10:33:08;;;;;;;0.10;0.10;;;;;;;;;;5086292;28;20273;-67
2021/05/30 10:35:34;;;;;;;0.00;0.00;;;;;;;;;;5086688;28;20207;-65
2021/05/30 10:38:00;;;;;;;0.08;0.08;;;;;;;;;;5086849;28;20300;-66
2021/05/30 10:40:32;;;;;;;0.10;0.10;;;;;;;;;;5087037;28;20414;-66
2021/05/30 10:43:17;;;;;;;0.10;0.10;;;;;;;;;;5087149;28;20215;-65
2021/05/30 10:46:04;;;;;;;0.03;0.03;;;;;;;;;;5082419;28;20230;-66
2021/05/30 10:48:30;;;;;;;0.10;0.10;;;;;;;;;;5087216;28;20210;-66
2021/05/30 10:51:10;;;;;;;0.08;0.08;;;;;;;;;;5087026;28;20240;-66
2021/05/30 10:53:38;;;;;;;0.10;0.10;;;;;;;;;;5086161;28;20210;-67
2021/05/30 10:56:14;;;;;;;0.00;0.00;;;;;;;;;;5083967;28;20228;-66
2021/05/30 10:58:39;;;;;;;0.00;0.00;;;;;;;;;;5081892;28;20221;-66
2021/05/30 11:01:15;;;;;;;0.00;0.00;;;;;;;;;;5084154;28;20206;-66
2021/05/30 11:03:51;;;;;;;0.03;0.03;;;;;;;;;;5084650;28;20501;-67
2021/05/30 11:06:40;;;;;;;0.00;0.00;;;;;;;;;;5084222;28;20220;-66
2021/05/30 11:09:06;;;;;;;0.10;0.10;;;;;;;;;;5084155;28;20284;-67
2021/05/30 11:11:32;;;;;;;0.00;0.00;;;;;;;;;;5083849;28;20208;-66
2021/05/30 11:13:58;;;;;;;0.10;0.10;;;;;;;;;;5083978;28;20214;-66
2021/05/30 11:16:26;;;;;;;0.10;0.10;;;;;;;;;;5083029;28;20226;-66
2021/05/30 11:18:55;;;;;;;0.05;0.05;;;;;;;;;;5077841;28;20207;-66
2021/05/30 11:21:25;;;;;;;0.03;0.03;;;;;;;;;;5083452;28;20215;-66
2021/05/30 11:23:51;;;;;;;0.00;0.00;;;;;;;;;;5084020;28;20522;-66
2021/05/30 11:26:16;;;;;;;0.00;0.00;;;;;;;;;;5086088;28;20220;-66
2021/05/30 11:28:45;;;;;;;0.10;0.10;;;;;;;;;;5080051;28;20211;-67
2021/05/30 11:31:12;;;;;;;0.00;0.00;;;;;;;;;;5083948;28;20213;-66
2021/05/30 11:33:43;;;;;;;0.03;0.03;;;;;;;;;;5083276;28;20378;-67
2021/05/30 11:36:14;;;;;;;0.00;0.00;;;;;;;;;;5074416;28;20361;-66
2021/05/30 11:38:41;;;;;;;0.10;0.10;;;;;;;;;;5084024;28;20227;-66
2021/05/30 11:41:08;;;;;;;0.00;0.00;;;;;;;;;;5097680;28;20222;-67
2021/05/30 11:43:34;;;;;;;0.08;0.08;;;;;;;;;;5083400;28;20205;-66
2021/05/30 11:46:09;;;;;;;0.00;0.00;;;;;;;;;;5083542;28;20204;-66
2021/05/30 11:48:35;;;;;;;0.00;0.00;;;;;;;;;;5083138;28;20293;-67
2021/05/30 11:51:03;;;;;;;0.00;0.00;;;;;;;;;;5083244;28;20201;-66
2021/05/30 11:53:30;;;;;;;0.00;0.00;;;;;;;;;;5083421;28;20201;-68
2021/05/30 11:55:56;;;;;;;0.00;0.00;;;;;;;;;;5083459;28;20210;-66
2021/05/30 11:58:22;;;;;;;0.00;0.00;;;;;;;;;;5083115;28;20207;-66
2021/05/30 12:00:54;;;;;;;0.00;0.00;;;;;;;;;;5083079;28;20242;-66
2021/05/30 12:03:20;;;;;;;0.00;0.00;;;;;;;;;;5081821;28;20285;-65
2021/05/30 12:05:46;;;;;;;0.00;0.00;;;;;;;;;;5083670;28;20520;-66
2021/05/30 12:08:13;;;;;;;0.00;0.00;;;;;;;;;;5089088;28;20446;-66
2021/05/30 12:10:47;;;;;;;0.00;0.00;;;;;;;;;;5095837;28;20536;-66
2021/05/30 12:13:23;;;;;;;0.00;0.00;;;;;;;;;;5099055;28;20205;-66
2021/05/30 12:15:49;;;;;;;0.00;0.00;;;;;;;;;;5084714;28;20419;-66
2021/05/30 12:18:15;;;;;;;0.05;0.05;;;;;;;;;;5081715;28;20201;-66
2021/05/30 12:20:41;;;;;;;0.00;0.00;;;;;;;;;;5089613;28;20212;-66
2021/05/30 12:23:08;;;;;;;0.05;0.05;;;;;;;;;;5088080;28;20460;-67
2021/05/30 12:25:35;;;;;;;0.00;0.00;;;;;;;;;;5088985;28;20301;-67
2021/05/30 12:28:01;;;;;;;0.00;0.00;;;;;;;;;;5089209;28;20359;-67
2021/05/30 12:30:27;;;;;;;0.00;0.00;;;;;;;;;;5086238;28;20214;-67
2021/05/30 12:32:53;;;;;;;0.00;0.00;;;;;;;;;;5089685;28;20269;-66
2021/05/30 12:35:34;;;;;;;0.00;0.00;;;;;;;;;;5089359;28;20212;-67
2021/05/30 12:38:00;;;;;;;0.10;0.10;;;;;;;;;;5088621;28;20232;-66
2021/05/30 12:40:34;;;;;;;0.00;0.00;;;;;;;;;;5089126;28;20285;-68
2021/05/30 12:43:01;;;;;;;0.05;0.05;;;;;;;;;;5089279;28;20564;-66
2021/05/30 12:45:27;;;;;;;0.00;0.00;;;;;;;;;;5089687;28;20368;-66
2021/05/30 12:47:53;;;;;;;0.03;0.03;;;;;;;;;;5089603;28;20414;-67
2021/05/30 12:50:20;;;;;;;0.08;0.08;;;;;;;;;;5089528;28;20240;-67
2021/05/30 12:52:46;;;;;;;0.00;0.00;;;;;;;;;;5089261;28;20203;-66
2021/05/30 12:55:13;;;;;;;0.00;0.00;;;;;;;;;;5089236;28;20206;-66
2021/05/30 12:57:40;;;;;;;0.00;0.00;;;;;;;;;;5089181;28;20206;-66
2021/05/30 13:00:08;;;;;;;0.00;0.00;;;;;;;;;;5089564;28;20206;-66
2021/05/30 13:02:34;;;;;;;0.00;0.00;;;;;;;;;;5089398;28;20394;-67
2021/05/30 13:05:00;;;;;;;0.10;0.10;;;;;;;;;;5089521;28;20209;-67
2021/05/30 13:07:29;;;;;;;0.00;0.00;;;;;;;;;;5089539;28;20252;-68
2021/05/30 13:09:59;;;;;;;0.00;0.00;;;;;;;;;;5089133;28;20237;-66
2021/05/30 13:12:26;;;;;;;0.00;0.00;;;;;;;;;;5085335;28;20204;-67
2021/05/30 13:15:03;;;;;;;0.00;0.00;;;;;;;;;;5088978;28;20404;-67
2021/05/30 13:17:30;;;;;;;0.00;0.00;;;;;;;;;;5095749;28;20222;-67
2021/05/30 13:20:04;;;;;;;0.00;0.00;;;;;;;;;;5087668;28;20203;-66
2021/05/30 13:22:30;;;;;;;0.00;0.00;;;;;;;;;;5086120;28;20214;-66
2021/05/30 13:24:56;;;;;;;0.00;0.00;;;;;;;;;;5085787;28;20312;-66
2021/05/30 13:27:22;;;;;;;0.00;0.00;;;;;;;;;;5085644;28;20205;-66
2021/05/30 13:29:59;;;;;;;0.10;0.10;;;;;;;;;;5086216;28;20230;-65
2021/05/30 13:32:25;;;;;;;0.00;0.00;;;;;;;;;;5075581;28;20225;-67
2021/05/30 13:34:52;;;;;;;0.00;0.00;;;;;;;;;;5087117;28;20428;-67
2021/05/30 13:37:18;;;;;;;0.00;0.00;;;;;;;;;;5086189;28;20232;-68
2021/05/30 13:39:43;;;;;;;0.00;0.00;;;;;;;;;;5085709;28;20399;-67
2021/05/30 13:42:09;;;;;;;0.00;0.00;;;;;;;;;;5086007;28;20487;-67
2021/05/30 13:44:35;;;;;;;0.10;0.10;;;;;;;;;;5085915;28;20206;-66
2021/05/30 13:47:01;;;;;;;0.00;0.00;;;;;;;;;;5085842;28;20312;-67
2021/05/30 13:49:26;;;;;;;0.00;0.00;;;;;;;;;;5085498;28;20281;-67
2021/05/30 13:51:53;;;;;;;0.00;0.00;;;;;;;;;;5085251;28;20272;-67
2021/05/30 13:54:19;;;;;;;0.00;0.00;;;;;;;;;;5085146;28;20209;-67
2021/05/30 13:56:44;;;;;;;0.10;0.10;;;;;;;;;;5085441;28;20217;-67
2021/05/30 13:59:10;;;;;;;0.10;0.10;;;;;;;;;;5085271;28;20223;-67
2021/05/30 14:01:36;;;;;;;0.00;0.00;;;;;;;;;;5085233;28;20394;-67
2021/05/30 14:04:02;;;;;;;0.00;0.00;;;;;;;;;;5085235;28;20285;-68
2021/05/30 14:06:27;;;;;;;0.00;0.00;;;;;;;;;;5085177;28;20214;-67
2021/05/30 14:08:56;;;;;;;0.00;0.00;;;;;;;;;;5085097;28;20213;-68
2021/05/30 14:11:24;;;;;;;0.03;0.03;;;;;;;;;;5084820;28;20209;-68
2021/05/30 14:13:50;;;;;;;0.10;0.10;;;;;;;;;;5085030;28;20462;-67
2021/05/30 14:16:16;;;;;;;0.10;0.10;;;;;;;;;;5084901;28;20278;-67
2021/05/30 14:18:41;;;;;;;0.00;0.00;;;;;;;;;;5084159;28;20210;-67
2021/05/30 14:21:07;;;;;;;0.00;0.00;;;;;;;;;;5085448;28;20244;-67
2021/05/30 14:23:33;;;;;;;0.10;0.10;;;;;;;;;;5085563;28;20239;-67
2021/05/30 14:26:00;;;;;;;0.15;0.15;;;;;;;;;;5085299;28;20209;-68
2021/05/30 14:28:26;;;;;;;0.00;0.00;;;;;;;;;;5085193;28;20245;-68
2021/05/30 14:30:52;;;;;;;0.00;0.00;;;;;;;;;;5084909;28;20233;-68
2021/05/30 14:33:18;;;;;;;0.03;0.03;;;;;;;;;;5084803;28;20202;-68
2021/05/30 14:35:43;;;;;;;0.00;0.00;;;;;;;;;;5084688;28;20319;-68
2021/05/30 14:38:09;;;;;;;0.00;0.00;;;;;;;;;;5084509;28;20295;-68
2021/05/30 14:40:35;;;;;;;0.00;0.00;;;;;;;;;;5084452;28;20243;-67